Time;durP1;ratioP1;P1;durP2;ratioP2;P2;SDS_P1;SDS_P2;PMS_P1;PMS_P2;Temp;Humidity;BMP_temperature;BMP_pressure;BME280_temperature;BME280_humidity;BME280_pressure;Samples;Min_cycle;Max_cycle;Signal;HPM_P1;HPM_P2
2021/04/01 00:01:18;;;;;;;5.55;3.30;;;10.30;69.40;;;;;;6271684;28;20068;-77
2021/04/01 00:04:19;;;;;;;3.83;3.35;;;10.30;69.40;;;;;;6271836;28;20128;-76
2021/04/01 00:07:21;;;;;;;8.38;5.38;;;10.30;69.30;;;;;;6271674;28;20052;-77
2021/04/01 00:10:25;;;;;;;5.22;3.72;;;10.30;69.30;;;;;;6272164;28;20136;-76
2021/04/01 00:13:27;;;;;;;5.60;3.50;;;10.30;69.60;;;;;;6271716;28;20047;-76
2021/04/01 00:16:29;;;;;;;4.55;3.72;;;10.20;69.90;;;;;;6271378;28;20049;-76
2021/04/01 00:19:30;;;;;;;15.38;4.07;;;10.10;70.40;;;;;;6271515;28;20045;-76
2021/04/01 00:22:32;;;;;;;7.53;3.97;;;10.10;70.60;;;;;;6269333;28;20570;-77
2021/04/01 00:25:34;;;;;;;8.50;6.95;;;10.10;71.20;;;;;;6268223;28;20033;-77
2021/04/01 00:28:35;;;;;;;6.97;4.20;;;10.00;70.60;;;;;;6271149;28;20555;-76
2021/04/01 00:31:37;;;;;;;9.48;3.30;;;10.10;70.60;;;;;;6271317;28;20099;-76
2021/04/01 00:34:38;;;;;;;7.30;4.20;;;10.00;70.70;;;;;;6271288;28;20553;-76
2021/04/01 00:37:40;;;;;;;7.25;4.57;;;10.00;70.90;;;;;;6268949;28;20064;-76
2021/04/01 00:40:41;;;;;;;7.00;4.90;;;10.00;70.90;;;;;;6257486;28;20465;-76
2021/04/01 00:43:42;;;;;;;10.90;4.75;;;9.90;71.00;;;;;;6251704;28;20080;-76
2021/04/01 00:46:48;;;;;;;8.23;4.20;;;9.90;71.10;;;;;;6271331;28;20059;-76
2021/04/01 00:49:49;;;;;;;6.00;4.18;;;9.90;71.50;;;;;;6248049;28;20083;-76
2021/04/01 00:52:50;;;;;;;7.32;3.58;;;9.80;71.50;;;;;;6261295;28;20076;-76
2021/04/01 00:55:52;;;;;;;7.55;3.47;;;9.80;71.70;;;;;;6263698;28;20050;-76
2021/04/01 00:58:55;;;;;;;6.57;5.57;;;9.70;72.00;;;;;;6246541;28;20475;-76
2021/04/01 01:02:01;;;;;;;10.70;3.63;;;9.60;72.40;;;;;;6324412;23;20087;-78
2021/04/01 01:05:03;;;;;;;11.77;4.32;;;9.50;72.80;;;;;;6311885;28;20049;-78
2021/04/01 01:08:05;;;;;;;4.72;3.70;;;9.50;72.90;;;;;;6305172;28;20040;-78
2021/04/01 01:11:07;;;;;;;5.82;4.18;;;9.50;73.00;;;;;;6303968;28;20186;-79
2021/04/01 01:14:09;;;;;;;8.77;4.38;;;9.50;73.20;;;;;;6305685;28;20132;-78
2021/04/01 01:17:14;;;;;;;6.85;3.92;;;9.50;73.20;;;;;;6286433;28;20068;-78
2021/04/01 01:20:16;;;;;;;7.88;4.72;;;9.50;73.40;;;;;;6279498;28;20136;-78
2021/04/01 01:23:19;;;;;;;7.10;4.18;;;9.40;73.50;;;;;;6279718;28;20131;-78
2021/04/01 01:26:21;;;;;;;7.03;3.60;;;9.40;73.70;;;;;;6279739;28;20148;-78
2021/04/01 01:29:23;;;;;;;5.68;4.65;;;9.40;73.80;;;;;;6279445;28;20052;-78
2021/04/01 01:32:24;;;;;;;7.28;4.00;;;9.40;73.90;;;;;;6279914;28;20072;-78
2021/04/01 01:35:27;;;;;;;8.10;5.45;;;9.30;74.20;;;;;;6279152;28;20065;-78
2021/04/01 01:38:28;;;;;;;4.22;3.60;;;9.30;74.30;;;;;;6279674;28;20072;-78
2021/04/01 01:41:31;;;;;;;7.40;4.90;;;9.30;74.50;;;;;;6279365;28;20049;-78
2021/04/01 01:44:32;;;;;;;7.70;3.63;;;9.20;74.80;;;;;;6279438;28;20469;-80
2021/04/01 01:47:33;;;;;;;9.30;4.28;;;9.20;75.00;;;;;;6280659;28;20108;-78
2021/04/01 01:50:36;;;;;;;6.57;4.00;;;9.20;75.40;;;;;;6281346;28;20099;-79
2021/04/01 01:53:38;;;;;;;7.55;4.30;;;9.10;75.40;;;;;;6280461;28;20507;-78
2021/04/01 01:56:40;;;;;;;9.30;4.35;;;9.00;75.50;;;;;;6280385;28;20064;-79
2021/04/01 01:59:41;;;;;;;8.60;5.63;;;9.00;75.80;;;;;;6281348;28;20474;-79
2021/04/01 02:02:50;;;;;;;8.45;4.47;;;9.00;75.80;;;;;;6282072;28;20049;-79
2021/04/01 02:05:52;;;;;;;5.90;4.35;;;9.00;75.90;;;;;;6281519;28;20041;-79
2021/04/01 02:08:57;;;;;;;7.40;4.05;;;9.00;75.80;;;;;;6281570;28;20079;-79
2021/04/01 02:11:59;;;;;;;6.97;4.65;;;9.00;76.10;;;;;;6281424;28;20076;-79
2021/04/01 02:15:01;;;;;;;8.07;5.07;;;9.00;76.30;;;;;;6281949;28;20122;-79
2021/04/01 02:18:07;;;;;;;5.30;4.15;;;8.90;76.50;;;;;;6281214;28;20073;-79
2021/04/01 02:21:10;;;;;;;5.75;4.18;;;8.90;76.80;;;;;;6281186;28;20079;-79
2021/04/01 02:24:11;;;;;;;9.63;5.97;;;8.90;76.70;;;;;;6282212;28;20517;-78
2021/04/01 02:27:13;;;;;;;7.15;4.97;;;8.90;76.90;;;;;;6281748;28;20049;-80
2021/04/01 02:30:15;;;;;;;8.15;4.20;;;8.90;77.00;;;;;;6281778;28;20056;-80
2021/04/01 02:33:18;;;;;;;5.97;4.88;;;8.80;77.20;;;;;;6281620;28;20299;-79
2021/04/01 02:36:20;;;;;;;19.33;4.43;;;8.80;77.40;;;;;;6280887;28;20045;-80
2021/04/01 02:39:21;;;;;;;5.25;4.18;;;8.80;77.70;;;;;;6283338;28;20045;-79
2021/04/01 02:42:23;;;;;;;6.07;5.22;;;8.70;77.70;;;;;;6300344;28;20071;-79
2021/04/01 02:45:25;;;;;;;6.90;4.40;;;8.70;77.80;;;;;;6298786;28;20045;-79
2021/04/01 02:48:26;;;;;;;8.75;5.13;;;8.60;78.00;;;;;;6300162;28;20063;-78
2021/04/01 02:51:28;;;;;;;7.75;6.13;;;8.60;78.20;;;;;;6293804;28;20077;-78
2021/04/01 02:54:29;;;;;;;16.60;4.93;;;8.50;78.50;;;;;;6280675;28;20506;-79
2021/04/01 02:57:31;;;;;;;14.20;5.55;;;8.60;78.60;;;;;;6279700;28;20520;-78
2021/04/01 03:00:35;;;;;;;14.52;5.53;;;8.50;78.50;;;;;;6279680;28;20123;-79
2021/04/01 03:03:38;;;;;;;7.38;4.68;;;8.50;78.90;;;;;;6280445;28;20064;-79
2021/04/01 03:06:40;;;;;;;9.10;4.35;;;8.50;78.80;;;;;;6280484;28;20045;-80
2021/04/01 03:09:41;;;;;;;7.90;3.97;;;8.50;78.90;;;;;;6279186;28;20079;-79
2021/04/01 03:12:43;;;;;;;4.97;3.65;;;8.50;79.00;;;;;;6278689;28;20125;-79
2021/04/01 03:15:44;;;;;;;6.15;4.72;;;8.50;79.10;;;;;;6278550;28;20107;-79
2021/04/01 03:18:46;;;;;;;5.90;4.82;;;8.50;79.00;;;;;;6279459;28;20421;-78
2021/04/01 03:21:48;;;;;;;8.48;5.55;;;8.50;79.50;;;;;;6278962;28;20064;-78
2021/04/01 03:24:50;;;;;;;6.15;4.03;;;8.50;79.60;;;;;;6279609;28;20075;-78
2021/04/01 03:27:52;;;;;;;8.90;4.28;;;8.50;79.50;;;;;;6277844;28;20062;-79
2021/04/01 03:30:59;;;;;;;8.10;4.22;;;8.50;79.40;;;;;;6280596;28;20087;-79
2021/04/01 03:34:00;;;;;;;11.15;5.75;;;8.50;79.60;;;;;;6279321;28;20100;-79
2021/04/01 03:37:02;;;;;;;15.95;4.80;;;8.60;79.30;;;;;;6278000;28;20053;-79
2021/04/01 03:40:05;;;;;;;7.10;5.13;;;8.50;79.30;;;;;;6287679;28;20068;-79
2021/04/01 03:43:08;;;;;;;7.45;4.10;;;8.40;79.50;;;;;;6279223;28;20048;-79
2021/04/01 03:46:10;;;;;;;11.80;4.43;;;8.40;79.80;;;;;;6279379;28;20142;-79
2021/04/01 03:49:12;;;;;;;7.03;4.45;;;8.30;79.90;;;;;;6278562;28;20041;-79
2021/04/01 03:52:13;;;;;;;11.57;5.60;;;8.30;80.00;;;;;;6278543;28;20048;-79
2021/04/01 03:55:32;;;;;;;6.85;3.97;;;8.20;80.70;;;;;;6278530;28;20048;-79
2021/04/01 03:58:52;;;;;;;7.75;4.30;;;8.20;80.20;;;;;;6280347;28;20053;-79
2021/04/01 04:02:05;;;;;;;7.93;4.60;;;8.20;80.50;;;;;;6278944;28;20044;-79
2021/04/01 04:05:20;;;;;;;11.32;7.05;;;8.20;80.50;;;;;;6278552;28;20041;-79
2021/04/01 04:08:47;;;;;;;10.60;4.68;;;8.30;80.40;;;;;;6278748;28;20045;-79
2021/04/01 04:11:52;;;;;;;9.05;5.55;;;8.30;80.30;;;;;;6278191;28;20502;-78
2021/04/01 04:15:05;;;;;;;8.73;4.25;;;8.40;80.20;;;;;;6278470;28;20047;-78
2021/04/01 04:18:06;;;;;;;6.07;5.03;;;8.40;80.10;;;;;;6277272;28;20049;-79
2021/04/01 04:21:08;;;;;;;9.80;5.10;;;8.40;80.20;;;;;;6277494;28;20067;-78
2021/04/01 04:24:11;;;;;;;8.38;7.30;;;8.40;80.30;;;;;;6277646;28;20124;-79
2021/04/01 04:27:21;;;;;;;17.52;5.35;;;8.40;80.30;;;;;;6276862;28;20060;-79
2021/04/01 04:30:25;;;;;;;9.80;7.63;;;8.40;80.20;;;;;;6278009;28;20049;-79
2021/04/01 04:33:27;;;;;;;9.43;5.07;;;8.40;80.20;;;;;;6277963;28;20068;-78
2021/04/01 04:36:29;;;;;;;14.20;4.90;;;8.40;80.40;;;;;;6275354;28;20064;-78
2021/04/01 04:39:30;;;;;;;11.15;5.03;;;8.50;80.60;;;;;;6275455;28;20049;-78
2021/04/01 04:42:31;;;;;;;7.82;5.22;;;8.40;80.50;;;;;;6277137;28;20056;-78
2021/04/01 04:45:33;;;;;;;10.88;5.90;;;8.50;80.60;;;;;;6276450;28;20119;-77
2021/04/01 04:48:35;;;;;;;7.82;5.13;;;8.50;80.80;;;;;;6276524;28;20068;-78
2021/04/01 04:51:36;;;;;;;14.35;8.02;;;8.40;80.90;;;;;;6276704;28;20072;-78
2021/04/01 04:54:37;;;;;;;8.95;5.47;;;8.30;81.10;;;;;;6276315;28;20080;-78
2021/04/01 04:57:46;;;;;;;6.25;4.22;;;8.30;81.60;;;;;;6276722;28;20112;-78
2021/04/01 05:01:02;;;;;;;;;;;8.30;81.80;;;;;;6272476;28;20048;-76
2021/04/01 05:07:23;;;;;;;7.20;5.70;;;8.10;81.80;;;;;;6271914;28;20048;-76
2021/04/01 05:10:24;;;;;;;7.38;4.20;;;8.10;81.90;;;;;;6271767;28;20475;-76
2021/04/01 05:13:26;;;;;;;8.57;4.20;;;8.10;82.20;;;;;;6271491;28;20426;-76
2021/04/01 05:16:28;;;;;;;10.07;4.45;;;8.10;82.30;;;;;;6271062;28;20073;-76
2021/04/01 05:19:31;;;;;;;6.20;4.82;;;8.20;82.90;;;;;;6271755;28;20048;-76
2021/04/01 05:22:40;;;;;;;5.72;3.88;;;8.20;82.20;;;;;;6271753;28;20075;-76
2021/04/01 05:25:41;;;;;;;5.15;3.78;;;8.30;82.10;;;;;;6271092;28;20106;-76
2021/04/01 05:28:45;;;;;;;9.98;5.88;;;8.40;82.00;;;;;;6271413;28;20051;-76
2021/04/01 05:31:49;;;;;;;8.20;4.88;;;8.40;82.20;;;;;;6271801;28;20053;-76
2021/04/01 05:34:50;;;;;;;10.50;5.30;;;8.60;82.30;;;;;;6271850;28;20052;-77
2021/04/01 05:37:52;;;;;;;7.65;3.65;;;8.90;81.80;;;;;;6271008;28;20118;-76
2021/04/01 05:40:53;;;;;;;6.22;3.70;;;9.10;81.00;;;;;;6271239;28;20080;-76
2021/04/01 05:44:03;;;;;;;11.73;4.63;;;9.40;80.20;;;;;;6271471;28;20045;-76
2021/04/01 05:47:13;;;;;;;12.10;4.45;;;9.60;79.20;;;;;;6271164;28;20053;-76
2021/04/01 05:50:25;;;;;;;6.97;3.80;;;9.80;78.60;;;;;;6273442;28;20055;-77
2021/04/01 06:00:46;;;;;;;5.95;4.03;;;10.10;77.70;;;;;;6264284;28;20079;-77
2021/04/01 06:03:56;;;;;;;13.43;5.13;;;10.20;77.40;;;;;;6274158;28;20698;-77
2021/04/01 06:07:02;;;;;;;9.65;4.70;;;10.30;77.30;;;;;;6299625;28;20513;-76
2021/04/01 06:10:05;;;;;;;165.82;89.65;;;10.50;77.00;;;;;;6300712;28;20052;-76
2021/04/01 06:13:10;;;;;;;57.85;30.48;;;10.70;76.50;;;;;;6300434;28;20071;-77
2021/04/01 06:16:13;;;;;;;22.00;12.38;;;10.90;75.90;;;;;;6309209;28;20078;-77
2021/04/01 06:19:17;;;;;;;13.25;8.73;;;11.20;75.40;;;;;;6325225;28;20135;-77
2021/04/01 06:22:22;;;;;;;9.60;6.30;;;11.50;74.90;;;;;;6325978;28;20060;-76
2021/04/01 06:25:23;;;;;;;17.27;8.13;;;11.60;74.40;;;;;;6325239;28;20055;-77
2021/04/01 06:28:33;;;;;;;19.30;5.93;;;11.70;74.40;;;;;;6325864;28;20047;-78
2021/04/01 06:31:41;;;;;;;9.20;5.97;;;11.80;74.00;;;;;;6325902;28;20066;-78
2021/04/01 06:34:44;;;;;;;10.98;4.68;;;12.10;72.80;;;;;;6325918;28;20394;-77
2021/04/01 06:41:22;;;;;;;14.82;5.10;;;12.70;70.60;;;;;;6345162;27;20380;-78
2021/04/01 06:44:31;;;;;;;12.02;5.80;;;13.10;69.30;;;;;;6339646;28;20037;-77
2021/04/01 06:47:34;;;;;;;8.15;4.68;;;13.30;68.60;;;;;;6325306;28;20047;-77
2021/04/01 06:50:35;;;;;;;5.22;4.72;;;13.60;67.70;;;;;;6325481;28;20021;-78
2021/04/01 06:53:40;;;;;;;7.80;4.72;;;13.90;66.50;;;;;;6324761;28;20052;-77
2021/04/01 06:56:49;;;;;;;13.85;4.75;;;14.10;66.20;;;;;;6323492;28;21126;-77
2021/04/01 06:59:59;;;;;;;;;;;14.30;65.20;;;;;;6317323;28;20052;-77
2021/04/01 07:03:06;;;;;;;10.52;6.15;;;14.60;65.00;;;;;;6294789;28;19971;-77
2021/04/01 07:06:10;;;;;;;14.80;5.13;;;14.80;63.80;;;;;;6293408;28;20053;-77
2021/04/01 07:09:32;;;;;;;6.75;5.43;;;15.10;62.40;;;;;;6293047;28;20041;-77
2021/04/01 07:12:39;;;;;;;13.48;5.70;;;15.50;61.20;;;;;;6292726;28;20094;-77
2021/04/01 07:15:45;;;;;;;6.72;4.78;;;15.80;60.80;;;;;;6291876;28;20139;-77
2021/04/01 07:19:03;;;;;;;10.55;5.03;;;16.10;59.30;;;;;;6293812;28;20044;-78
2021/04/01 07:32:24;;;;;;;8.65;4.05;;;17.40;55.10;;;;;;6293934;28;20044;-78
2021/04/01 07:49:02;;;;;;;17.52;5.18;;;18.80;49.50;;;;;;6294084;28;20041;-77
2021/04/01 07:52:08;;;;;;;11.52;4.38;;;19.10;48.60;;;;;;6281381;28;20072;-77
2021/04/01 07:55:20;;;;;;;8.43;3.78;;;19.20;48.40;;;;;;6277664;28;20418;-77
2021/04/01 07:58:39;;;;;;;10.73;4.93;;;19.30;48.40;;;;;;6282660;28;20059;-77
2021/04/01 08:01:53;;;;;;;7.85;4.65;;;19.40;48.90;;;;;;6280528;28;20045;-77
2021/04/01 08:04:58;;;;;;;9.20;4.82;;;19.40;48.80;;;;;;6277205;28;20049;-78
2021/04/01 08:08:01;;;;;;;10.20;4.88;;;19.70;48.20;;;;;;6275078;28;20052;-78
2021/04/01 08:11:06;;;;;;;13.95;4.32;;;20.00;47.20;;;;;;6276033;28;20045;-78
2021/04/01 08:14:14;;;;;;;10.48;5.18;;;20.20;47.00;;;;;;6276615;28;20571;-78
2021/04/01 08:17:18;;;;;;;;;;;20.40;46.40;;;;;;6277047;28;20426;-77
2021/04/01 08:20:22;;;;;;;6.85;3.70;;;20.40;46.20;;;;;;6276375;28;20352;-77
2021/04/01 08:23:29;;;;;;;12.45;4.35;;;20.60;45.70;;;;;;6275832;28;20106;-77
2021/04/01 08:26:42;;;;;;;10.52;4.75;;;20.70;44.80;;;;;;6275501;28;20057;-77
2021/04/01 08:33:16;;;;;;;18.75;4.82;;;20.30;46.30;;;;;;6274400;28;20090;-77
2021/04/01 08:36:21;;;;;;;5.07;3.28;;;20.10;46.60;;;;;;6274823;28;20099;-77
2021/04/01 08:39:23;;;;;;;6.40;3.63;;;19.90;46.70;;;;;;6273616;28;20162;-77
2021/04/01 08:43:02;;;;;;;8.43;5.20;;;19.80;46.90;;;;;;6274185;28;20399;-77
2021/04/01 08:46:14;;;;;;;8.75;3.85;;;19.80;46.10;;;;;;6271047;28;20485;-78
2021/04/01 08:49:24;;;;;;;8.77;4.45;;;19.80;45.80;;;;;;6275421;28;20132;-77
2021/04/01 08:53:01;;;;;;;8.55;5.40;;;19.90;45.90;;;;;;6275541;28;20465;-77
2021/04/01 08:56:18;;;;;;;9.48;4.68;;;20.20;45.10;;;;;;6273239;28;20125;-77
2021/04/01 08:59:24;;;;;;;9.32;4.30;;;20.50;45.00;;;;;;6273234;28;20139;-77
2021/04/01 09:02:26;;;;;;;14.63;4.60;;;20.80;44.20;;;;;;6272967;28;20145;-77
2021/04/01 09:05:29;;;;;;;10.38;4.25;;;21.00;43.90;;;;;;6273298;28;20064;-77
2021/04/01 09:08:34;;;;;;;7.95;3.85;;;21.30;43.30;;;;;;6274352;28;20044;-78
2021/04/01 09:11:42;;;;;;;9.50;3.00;;;21.70;43.40;;;;;;6275404;28;20099;-78
2021/04/01 09:14:49;;;;;;;6.20;3.47;;;22.10;42.70;;;;;;6275483;28;20114;-77
2021/04/01 09:17:50;;;;;;;5.13;4.03;;;22.50;42.50;;;;;;6273369;28;20068;-78
2021/04/01 09:20:55;;;;;;;12.50;4.70;;;23.00;40.60;;;;;;6273258;28;20041;-77
2021/04/01 09:23:57;;;;;;;10.45;3.80;;;23.30;40.20;;;;;;6274133;28;20067;-77
2021/04/01 09:27:00;;;;;;;8.70;3.92;;;23.40;40.10;;;;;;6275568;28;20620;-78
2021/04/01 09:30:04;;;;;;;11.48;4.43;;;23.60;39.80;;;;;;6273449;28;20139;-79
2021/04/01 09:33:14;;;;;;;8.15;3.75;;;23.80;39.20;;;;;;6274562;28;20132;-77
2021/04/01 09:36:20;;;;;;;5.05;4.00;;;24.00;38.60;;;;;;6271956;28;20128;-77
2021/04/01 09:39:32;;;;;;;6.97;3.88;;;24.00;38.60;;;;;;6272652;28;20493;-78
2021/04/01 09:42:42;;;;;;;7.88;3.53;;;24.20;38.00;;;;;;6274367;28;20537;-78
2021/04/01 09:45:44;;;;;;;5.97;3.90;;;24.20;38.00;;;;;;6272794;28;20413;-78
2021/04/01 09:48:54;;;;;;;10.57;3.60;;;24.30;37.80;;;;;;6273637;28;20076;-77
2021/04/01 09:51:56;;;;;;;10.07;3.42;;;24.30;37.40;;;;;;6272342;28;20136;-77
2021/04/01 09:55:00;;;;;;;9.02;3.45;;;24.50;37.00;;;;;;6273220;28;20141;-77
2021/04/01 09:58:14;;;;;;;11.00;3.50;;;24.60;37.20;;;;;;6272431;28;20064;-78
2021/04/01 10:01:29;;;;;;;7.90;4.22;;;24.70;36.80;;;;;;6272243;28;20072;-78
2021/04/01 10:04:35;;;;;;;8.75;3.88;;;24.80;37.10;;;;;;6271916;28;20072;-78
2021/04/01 10:07:49;;;;;;;4.07;3.08;;;25.10;36.10;;;;;;6271714;28;20076;-78
2021/04/01 10:10:52;;;;;;;5.00;2.90;;;25.20;35.40;;;;;;6272662;28;20056;-78
2021/04/01 10:14:06;;;;;;;4.45;3.58;;;25.40;35.80;;;;;;6271385;28;20049;-77
2021/04/01 10:17:09;;;;;;;6.72;4.18;;;25.40;35.40;;;;;;6271676;28;20049;-77
2021/04/01 10:20:11;;;;;;;5.28;3.25;;;25.40;35.80;;;;;;6271433;28;20126;-77
2021/04/01 10:23:14;;;;;;;7.90;3.13;;;25.50;36.10;;;;;;6271612;28;20096;-78
2021/04/01 10:26:17;;;;;;;8.20;2.65;;;25.70;34.60;;;;;;6271353;28;20076;-78
2021/04/01 10:29:24;;;;;;;10.95;2.95;;;26.00;34.60;;;;;;6271218;28;20061;-78
2021/04/01 10:32:38;;;;;;;;;;;26.20;34.70;;;;;;6271604;28;20560;-78
2021/04/01 10:35:42;;;;;;;8.48;3.20;;;26.40;35.20;;;;;;6271302;28;19928;-78
2021/04/01 10:38:45;;;;;;;9.80;3.10;;;26.60;34.00;;;;;;6271601;28;20055;-76
2021/04/01 10:41:49;;;;;;;4.05;2.63;;;26.80;33.20;;;;;;6271578;28;20421;-77
2021/04/01 10:44:58;;;;;;;5.03;2.92;;;27.00;33.10;;;;;;6271289;28;20136;-77
2021/04/01 10:48:20;;;;;;;4.63;3.22;;;27.20;32.60;;;;;;6271854;28;20132;-77
2021/04/01 10:51:24;;;;;;;5.72;3.85;;;27.40;32.20;;;;;;6271511;28;20048;-76
2021/04/01 10:54:36;;;;;;;7.43;4.18;;;27.50;31.80;;;;;;6271971;28;20384;-77
2021/04/01 10:57:38;;;;;;;7.50;2.58;;;27.50;32.00;;;;;;6271129;28;20075;-77
2021/04/01 11:00:40;;;;;;;11.25;2.65;;;27.40;31.80;;;;;;6270819;28;20052;-76
2021/04/01 11:03:46;;;;;;;11.60;2.80;;;27.20;32.10;;;;;;6271356;28;20052;-77
2021/04/01 11:06:50;;;;;;;7.55;2.95;;;27.10;31.30;;;;;;6271535;28;20056;-77
2021/04/01 11:09:52;;;;;;;6.93;2.95;;;27.10;31.40;;;;;;6271340;28;20123;-76
2021/04/01 11:12:56;;;;;;;8.50;2.90;;;27.10;31.50;;;;;;6271140;28;20055;-77
2021/04/01 11:15:59;;;;;;;10.63;3.58;;;27.10;31.50;;;;;;6271031;28;20056;-77
2021/04/01 11:19:02;;;;;;;3.92;2.20;;;27.20;31.90;;;;;;6271685;28;20119;-76
2021/04/01 11:22:05;;;;;;;13.15;3.15;;;27.50;31.80;;;;;;6271245;28;20503;-77
2021/04/01 11:25:15;;;;;;;8.13;3.97;;;27.60;32.00;;;;;;6271293;28;20045;-77
2021/04/01 11:28:17;;;;;;;3.58;2.85;;;27.80;32.20;;;;;;6275763;28;20049;-77
2021/04/01 11:31:22;;;;;;;10.25;4.03;;;27.90;31.60;;;;;;6275577;28;20072;-77
2021/04/01 11:34:24;;;;;;;8.63;3.30;;;28.00;31.10;;;;;;6276175;28;20076;-76
2021/04/01 11:37:29;;;;;;;7.40;2.75;;;28.10;31.00;;;;;;6275137;28;20586;-78
2021/04/01 11:40:32;;;;;;;8.35;3.85;;;28.20;30.90;;;;;;6275423;28;20057;-78
2021/04/01 11:43:35;;;;;;;4.45;2.83;;;28.30;31.70;;;;;;6275678;28;20095;-76
2021/04/01 11:46:36;;;;;;;9.70;4.22;;;28.30;31.40;;;;;;6275490;28;20049;-77
2021/04/01 11:49:37;;;;;;;5.93;4.13;;;28.20;31.30;;;;;;6275194;28;20041;-78
2021/04/01 11:52:40;;;;;;;4.55;3.00;;;28.20;31.60;;;;;;6274918;28;20091;-76
2021/04/01 11:55:50;;;;;;;12.13;4.35;;;28.20;31.70;;;;;;6274948;28;20076;-76
2021/04/01 11:58:52;;;;;;;4.90;3.00;;;28.30;32.00;;;;;;6276267;28;20108;-77
2021/04/01 12:01:58;;;;;;;10.98;3.72;;;28.20;31.90;;;;;;6278854;28;20131;-77
2021/04/01 12:05:02;;;;;;;8.60;3.45;;;28.30;32.10;;;;;;6285456;28;20041;-78
2021/04/01 12:08:04;;;;;;;6.25;3.08;;;28.50;31.40;;;;;;6286106;28;20071;-78
2021/04/01 12:11:06;;;;;;;15.00;3.55;;;28.60;31.90;;;;;;6278014;28;20045;-77
2021/04/01 12:14:08;;;;;;;5.70;2.90;;;28.60;31.20;;;;;;6277694;28;20059;-78
2021/04/01 12:17:10;;;;;;;7.20;2.85;;;28.50;31.50;;;;;;6278961;28;20045;-76
2021/04/01 12:20:13;;;;;;;7.25;3.05;;;28.40;31.60;;;;;;6275832;28;20052;-76
2021/04/01 12:23:16;;;;;;;6.63;3.13;;;28.50;31.40;;;;;;6283570;28;20068;-78
2021/04/01 12:26:19;;;;;;;4.25;3.25;;;28.60;32.10;;;;;;6287658;28;20422;-78
2021/04/01 12:29:22;;;;;;;7.32;3.30;;;28.90;31.50;;;;;;6284157;28;20073;-77
2021/04/01 12:32:28;;;;;;;7.55;4.95;;;29.20;31.20;;;;;;6279224;28;20049;-78
2021/04/01 12:35:30;;;;;;;5.80;2.78;;;29.40;31.10;;;;;;6280087;28;20056;-78
2021/04/01 12:38:32;;;;;;;8.88;3.20;;;29.50;31.00;;;;;;6279744;28;20084;-77
2021/04/01 12:41:37;;;;;;;6.55;4.72;;;29.70;31.10;;;;;;6279231;28;20399;-77
2021/04/01 12:44:41;;;;;;;4.80;3.30;;;29.90;30.80;;;;;;6275972;28;20115;-77
2021/04/01 12:47:43;;;;;;;6.88;3.20;;;29.90;30.10;;;;;;6274803;28;20076;-77
2021/04/01 12:50:47;;;;;;;7.60;3.70;;;30.00;29.40;;;;;;6275477;28;20052;-76
2021/04/01 12:54:00;;;;;;;5.90;3.00;;;30.00;29.40;;;;;;6275598;28;20050;-78
2021/04/01 12:57:05;;;;;;;6.47;2.75;;;30.00;29.10;;;;;;6274070;28;20053;-78
2021/04/01 13:00:08;;;;;;;4.65;3.25;;;30.20;29.40;;;;;;6274478;28;20414;-77
2021/04/01 13:03:10;;;;;;;5.00;2.58;;;30.20;29.40;;;;;;6275141;28;20049;-77
2021/04/01 13:06:15;;;;;;;5.70;2.50;;;30.20;29.40;;;;;;6276456;28;20528;-77
2021/04/01 13:09:29;;;;;;;6.22;2.88;;;29.90;29.80;;;;;;6275912;28;20063;-77
2021/04/01 13:12:31;;;;;;;7.40;2.83;;;29.80;30.00;;;;;;6274034;28;20057;-76
2021/04/01 13:15:32;;;;;;;9.18;3.28;;;29.60;30.00;;;;;;6278938;28;20061;-79
2021/04/01 13:18:34;;;;;;;7.30;3.75;;;29.60;30.10;;;;;;6280049;28;20048;-77
2021/04/01 13:21:39;;;;;;;4.97;2.78;;;29.70;29.90;;;;;;6276024;28;20459;-77
2021/04/01 13:25:04;;;;;;;5.95;3.33;;;29.70;29.80;;;;;;6276590;28;20048;-78
2021/04/01 13:28:08;;;;;;;6.68;2.95;;;29.60;29.60;;;;;;6274424;28;20060;-77
2021/04/01 13:31:19;;;;;;;9.02;3.75;;;29.60;29.40;;;;;;6275585;28;20060;-77
2021/04/01 13:34:24;;;;;;;5.75;3.08;;;29.50;29.20;;;;;;6274353;28;20060;-77
2021/04/01 13:37:30;;;;;;;6.10;2.70;;;29.60;29.00;;;;;;6275822;28;20519;-77
2021/04/01 13:40:32;;;;;;;11.57;4.22;;;29.50;29.10;;;;;;6277629;28;20116;-77
2021/04/01 13:43:35;;;;;;;9.27;3.22;;;29.60;29.40;;;;;;6275489;28;20045;-77
2021/04/01 13:46:38;;;;;;;7.75;2.78;;;29.70;29.40;;;;;;6275221;28;20048;-77
2021/04/01 13:49:41;;;;;;;8.25;3.15;;;29.60;29.20;;;;;;6274362;28;20151;-78
2021/04/01 13:52:45;;;;;;;7.18;3.25;;;29.60;29.30;;;;;;6276629;28;20072;-78
2021/04/01 13:55:49;;;;;;;7.80;2.53;;;29.70;29.40;;;;;;6276963;28;20045;-77
2021/04/01 13:59:20;;;;;;;7.40;3.40;;;29.50;29.00;;;;;;6277366;28;20053;-78
2021/04/01 14:09:16;;;;;;;3.47;2.63;;;29.20;29.30;;;;;;6277997;28;20041;-78
2021/04/01 14:12:19;;;;;;;9.30;2.95;;;29.00;29.40;;;;;;6276251;28;20068;-78
2021/04/01 14:15:21;;;;;;;7.53;3.35;;;28.50;30.90;;;;;;6255230;28;20101;-78
2021/04/01 14:18:25;;;;;;;7.80;3.13;;;28.50;30.60;;;;;;6254337;28;20057;-77
2021/04/01 14:21:26;;;;;;;6.03;2.55;;;28.60;30.20;;;;;;6249981;28;20132;-77
2021/04/01 14:24:31;;;;;;;4.82;3.78;;;28.70;30.40;;;;;;6247838;28;20136;-76
2021/04/01 14:27:38;;;;;;;14.55;6.10;;;28.70;30.90;;;;;;6248645;28;20049;-75
2021/04/01 14:30:40;;;;;;;13.23;7.43;;;28.60;30.30;;;;;;6249524;28;20049;-79
2021/04/01 14:33:43;;;;;;;11.88;5.70;;;28.30;31.00;;;;;;6248090;28;20136;-77
2021/04/01 14:36:45;;;;;;;19.92;8.90;;;28.20;31.20;;;;;;6250361;28;20454;-77
2021/04/01 14:39:47;;;;;;;17.27;9.30;;;28.00;30.90;;;;;;6247076;28;20520;-76
2021/04/01 14:42:50;;;;;;;13.15;7.13;;;27.90;31.30;;;;;;6248394;28;20140;-78
2021/04/01 14:45:53;;;;;;;13.38;8.27;;;27.70;30.70;;;;;;6248455;28;20064;-78
2021/04/01 14:48:55;;;;;;;19.00;8.00;;;27.30;30.90;;;;;;6247534;28;20056;-78
2021/04/01 14:51:57;;;;;;;14.95;7.22;;;27.10;31.50;;;;;;6247115;28;20050;-77
2021/04/01 14:55:00;;;;;;;17.38;8.52;;;27.30;31.40;;;;;;6247323;28;20053;-76
2021/04/01 14:58:02;;;;;;;15.63;9.55;;;27.40;31.10;;;;;;6246297;28;20132;-77
2021/04/01 15:01:07;;;;;;;15.13;9.18;;;27.60;30.80;;;;;;6248847;28;20156;-77
2021/04/01 15:04:08;;;;;;;10.57;9.20;;;27.50;30.20;;;;;;6251691;28;20513;-77
2021/04/01 15:07:10;;;;;;;19.10;10.05;;;27.40;31.50;;;;;;6251531;28;20088;-77
2021/04/01 15:10:13;;;;;;;20.08;9.57;;;27.30;30.90;;;;;;6252657;28;20060;-77
2021/04/01 15:13:15;;;;;;;13.93;10.02;;;27.30;30.60;;;;;;6259925;28;20098;-77
2021/04/01 15:16:20;;;;;;;13.18;9.40;;;27.30;30.80;;;;;;6275817;28;20051;-77
2021/04/01 15:19:22;;;;;;;12.18;8.45;;;27.30;31.20;;;;;;6276535;28;20239;-77
2021/04/01 15:22:23;;;;;;;18.63;8.90;;;27.20;31.30;;;;;;6276664;28;20135;-78
2021/04/01 15:25:25;;;;;;;20.52;8.90;;;27.10;31.20;;;;;;6275962;28;20072;-77
2021/04/01 15:28:26;;;;;;;17.02;11.02;;;26.90;31.60;;;;;;6276234;28;20045;-77
2021/04/01 15:31:28;;;;;;;15.57;9.63;;;26.80;31.50;;;;;;6276364;28;20052;-78
2021/04/01 15:34:30;;;;;;;16.52;11.38;;;26.80;31.80;;;;;;6276950;28;20076;-78
2021/04/01 15:37:31;;;;;;;15.30;11.25;;;26.70;32.00;;;;;;6276210;28;20060;-77
2021/04/01 15:40:33;;;;;;;21.52;11.32;;;26.70;32.00;;;;;;6275731;28;20128;-76
2021/04/01 15:43:35;;;;;;;18.50;13.20;;;26.60;32.20;;;;;;6275584;28;20124;-76
2021/04/01 15:46:37;;;;;;;18.40;12.18;;;26.40;32.10;;;;;;6275813;28;20482;-77
2021/04/01 15:49:39;;;;;;;21.65;11.00;;;26.30;32.10;;;;;;6276079;28;20079;-78
2021/04/01 15:52:41;;;;;;;26.73;12.57;;;26.20;32.40;;;;;;6275532;28;20092;-78
2021/04/01 15:55:42;;;;;;;30.42;14.70;;;26.10;32.10;;;;;;6275882;28;20124;-77
2021/04/01 15:58:43;;;;;;;20.65;12.05;;;25.80;32.20;;;;;;6275158;28;20510;-78
2021/04/01 16:01:45;;;;;;;16.83;11.32;;;25.50;33.00;;;;;;6276547;28;20131;-77
2021/04/01 16:04:47;;;;;;;18.63;12.77;;;25.30;33.70;;;;;;6279397;28;20109;-79
2021/04/01 16:07:51;;;;;;;16.73;10.65;;;25.10;33.20;;;;;;6293507;28;20117;-78
2021/04/01 16:10:52;;;;;;;18.98;12.82;;;25.00;34.20;;;;;;6291082;28;20048;-79
2021/04/01 16:13:55;;;;;;;20.88;13.35;;;24.80;34.50;;;;;;6298163;28;20071;-79
2021/04/01 16:16:57;;;;;;;24.15;15.77;;;24.70;34.60;;;;;;6290690;28;20049;-78
2021/04/01 16:19:58;;;;;;;20.65;13.32;;;24.60;34.70;;;;;;6284466;28;20045;-78
2021/04/01 16:23:00;;;;;;;25.02;14.27;;;24.50;34.90;;;;;;6280872;28;20110;-78
2021/04/01 16:26:01;;;;;;;24.42;15.43;;;24.40;35.20;;;;;;6280820;28;20049;-78
2021/04/01 16:29:03;;;;;;;24.80;15.57;;;24.30;35.00;;;;;;6280030;28;20056;-78
2021/04/01 16:32:07;;;;;;;29.30;16.58;;;24.30;35.70;;;;;;6279320;28;20053;-78
2021/04/01 16:35:10;;;;;;;28.95;14.40;;;24.20;35.10;;;;;;6277514;28;20580;-77
2021/04/01 16:38:12;;;;;;;25.70;15.30;;;24.10;35.10;;;;;;6275657;28;20708;-77
2021/04/01 16:41:13;;;;;;;25.30;12.18;;;24.00;35.70;;;;;;6275177;28;20061;-77
2021/04/01 16:44:15;;;;;;;23.17;13.65;;;23.80;36.00;;;;;;6277155;28;20517;-78
2021/04/01 16:47:17;;;;;;;25.35;14.00;;;23.80;36.10;;;;;;6282401;28;20068;-78